sensor_id;sensor_type;location;lat;lon;timestamp;P1;durP1;ratioP1;P2;durP2;ratioP2
47523;SDS011;33253;42.144;25.884;2022-10-26T00:01:17;20.23;;;11.20;;
47523;SDS011;33253;42.144;25.884;2022-10-26T00:03:43;20.90;;;10.23;;
47523;SDS011;33253;42.144;25.884;2022-10-26T00:06:17;17.85;;;11.48;;
47523;SDS011;33253;42.144;25.884;2022-10-26T00:08:44;22.35;;;10.95;;
47523;SDS011;33253;42.144;25.884;2022-10-26T00:11:10;21.02;;;11.38;;
47523;SDS011;33253;42.144;25.884;2022-10-26T00:13:37;21.38;;;10.82;;
47523;SDS011;33253;42.144;25.884;2022-10-26T00:16:10;22.88;;;10.82;;
47523;SDS011;33253;42.144;25.884;2022-10-26T00:18:40;21.50;;;10.73;;
47523;SDS011;33253;42.144;25.884;2022-10-26T00:21:07;17.35;;;10.85;;
47523;SDS011;33253;42.144;25.884;2022-10-26T00:23:34;22.30;;;11.35;;
47523;SDS011;33253;42.144;25.884;2022-10-26T00:25:59;21.13;;;11.10;;
47523;SDS011;33253;42.144;25.884;2022-10-26T00:28:25;21.48;;;11.73;;
47523;SDS011;33253;42.144;25.884;2022-10-26T00:30:51;22.67;;;11.32;;
47523;SDS011;33253;42.144;25.884;2022-10-26T00:33:17;23.17;;;11.60;;
47523;SDS011;33253;42.144;25.884;2022-10-26T00:36:04;24.27;;;11.73;;
47523;SDS011;33253;42.144;25.884;2022-10-26T00:38:28;21.17;;;11.73;;
47523;SDS011;33253;42.144;25.884;2022-10-26T00:40:54;25.38;;;12.13;;
47523;SDS011;33253;42.144;25.884;2022-10-26T00:45:45;19.25;;;11.25;;
47523;SDS011;33253;42.144;25.884;2022-10-26T00:48:17;24.55;;;11.68;;
47523;SDS011;33253;42.144;25.884;2022-10-26T00:50:57;20.63;;;11.55;;
47523;SDS011;33253;42.144;25.884;2022-10-26T00:53:25;23.05;;;11.07;;
47523;SDS011;33253;42.144;25.884;2022-10-26T00:56:10;16.63;;;11.95;;
47523;SDS011;33253;42.144;25.884;2022-10-26T00:58:35;22.27;;;11.93;;
47523;SDS011;33253;42.144;25.884;2022-10-26T01:01:02;19.52;;;11.82;;
47523;SDS011;33253;42.144;25.884;2022-10-26T01:03:27;17.42;;;12.73;;
47523;SDS011;33253;42.144;25.884;2022-10-26T01:05:55;21.83;;;11.45;;
47523;SDS011;33253;42.144;25.884;2022-10-26T01:08:22;24.23;;;12.35;;
47523;SDS011;33253;42.144;25.884;2022-10-26T01:10:49;21.60;;;11.60;;
47523;SDS011;33253;42.144;25.884;2022-10-26T01:13:15;19.63;;;12.43;;
47523;SDS011;33253;42.144;25.884;2022-10-26T01:35:12;21.73;;;13.13;;
47523;SDS011;33253;42.144;25.884;2022-10-26T01:37:47;20.90;;;12.20;;
47523;SDS011;33253;42.144;25.884;2022-10-26T01:43:26;18.58;;;12.45;;
47523;SDS011;33253;42.144;25.884;2022-10-26T01:45:56;19.88;;;12.07;;
47523;SDS011;33253;42.144;25.884;2022-10-26T01:48:22;17.98;;;11.38;;
47523;SDS011;33253;42.144;25.884;2022-10-26T01:50:51;22.73;;;11.85;;
47523;SDS011;33253;42.144;25.884;2022-10-26T01:53:18;21.52;;;12.93;;
47523;SDS011;33253;42.144;25.884;2022-10-26T02:06:49;21.67;;;12.85;;
47523;SDS011;33253;42.144;25.884;2022-10-26T02:12:30;20.80;;;13.23;;
47523;SDS011;33253;42.144;25.884;2022-10-26T02:15:08;27.23;;;14.18;;
47523;SDS011;33253;42.144;25.884;2022-10-26T02:17:47;21.75;;;13.45;;
47523;SDS011;33253;42.144;25.884;2022-10-26T02:20:33;21.00;;;12.35;;
47523;SDS011;33253;42.144;25.884;2022-10-26T02:23:02;23.00;;;12.95;;
47523;SDS011;33253;42.144;25.884;2022-10-26T02:25:32;24.13;;;13.80;;
47523;SDS011;33253;42.144;25.884;2022-10-26T02:28:06;23.20;;;13.05;;
47523;SDS011;33253;42.144;25.884;2022-10-26T02:30:37;21.73;;;12.65;;
47523;SDS011;33253;42.144;25.884;2022-10-26T02:33:04;19.65;;;12.73;;
47523;SDS011;33253;42.144;25.884;2022-10-26T02:35:33;22.85;;;13.00;;
47523;SDS011;33253;42.144;25.884;2022-10-26T02:38:01;21.65;;;12.88;;
47523;SDS011;33253;42.144;25.884;2022-10-26T02:40:30;25.10;;;13.30;;
47523;SDS011;33253;42.144;25.884;2022-10-26T02:42:58;18.38;;;12.38;;
47523;SDS011;33253;42.144;25.884;2022-10-26T02:45:39;20.77;;;13.00;;
47523;SDS011;33253;42.144;25.884;2022-10-26T02:48:12;21.65;;;12.52;;
47523;SDS011;33253;42.144;25.884;2022-10-26T02:50:42;25.25;;;12.90;;
47523;SDS011;33253;42.144;25.884;2022-10-26T02:53:17;22.02;;;12.70;;
47523;SDS011;33253;42.144;25.884;2022-10-26T02:56:02;22.27;;;12.98;;
47523;SDS011;33253;42.144;25.884;2022-10-26T02:58:33;23.80;;;13.35;;
47523;SDS011;33253;42.144;25.884;2022-10-26T03:01:05;20.90;;;12.38;;
47523;SDS011;33253;42.144;25.884;2022-10-26T03:03:32;19.63;;;13.05;;
47523;SDS011;33253;42.144;25.884;2022-10-26T03:05:57;23.50;;;13.18;;
47523;SDS011;33253;42.144;25.884;2022-10-26T03:08:22;23.75;;;14.55;;
47523;SDS011;33253;42.144;25.884;2022-10-26T03:10:48;23.48;;;13.10;;
47523;SDS011;33253;42.144;25.884;2022-10-26T03:13:13;23.67;;;12.88;;
47523;SDS011;33253;42.144;25.884;2022-10-26T03:15:39;25.33;;;13.55;;
47523;SDS011;33253;42.144;25.884;2022-10-26T03:18:05;20.20;;;12.23;;
47523;SDS011;33253;42.144;25.884;2022-10-26T03:20:31;22.35;;;13.20;;
47523;SDS011;33253;42.144;25.884;2022-10-26T03:22:56;35.10;;;14.68;;
47523;SDS011;33253;42.144;25.884;2022-10-26T03:25:22;22.90;;;13.27;;
47523;SDS011;33253;42.144;25.884;2022-10-26T03:27:58;24.67;;;13.70;;
47523;SDS011;33253;42.144;25.884;2022-10-26T03:30:27;31.00;;;13.30;;
47523;SDS011;33253;42.144;25.884;2022-10-26T03:32:54;30.02;;;13.90;;
47523;SDS011;33253;42.144;25.884;2022-10-26T03:35:20;24.70;;;13.30;;
47523;SDS011;33253;42.144;25.884;2022-10-26T03:37:45;25.77;;;13.68;;
47523;SDS011;33253;42.144;25.884;2022-10-26T03:40:11;21.35;;;13.65;;
47523;SDS011;33253;42.144;25.884;2022-10-26T03:42:36;24.45;;;14.23;;
47523;SDS011;33253;42.144;25.884;2022-10-26T03:45:02;23.88;;;14.57;;
47523;SDS011;33253;42.144;25.884;2022-10-26T03:47:29;27.60;;;13.82;;
47523;SDS011;33253;42.144;25.884;2022-10-26T03:49:54;25.52;;;13.57;;
47523;SDS011;33253;42.144;25.884;2022-10-26T03:52:20;26.52;;;14.30;;
47523;SDS011;33253;42.144;25.884;2022-10-26T03:54:45;23.08;;;13.40;;
47523;SDS011;33253;42.144;25.884;2022-10-26T03:57:11;24.38;;;13.70;;
47523;SDS011;33253;42.144;25.884;2022-10-26T03:59:37;25.95;;;14.63;;
47523;SDS011;33253;42.144;25.884;2022-10-26T04:02:02;26.75;;;15.07;;
47523;SDS011;33253;42.144;25.884;2022-10-26T04:04:28;25.20;;;15.07;;
47523;SDS011;33253;42.144;25.884;2022-10-26T04:06:53;28.27;;;14.50;;
47523;SDS011;33253;42.144;25.884;2022-10-26T04:09:19;24.13;;;15.43;;
47523;SDS011;33253;42.144;25.884;2022-10-26T04:11:44;22.55;;;14.07;;
47523;SDS011;33253;42.144;25.884;2022-10-26T04:14:10;23.70;;;14.07;;
47523;SDS011;33253;42.144;25.884;2022-10-26T04:16:35;22.88;;;13.88;;
47523;SDS011;33253;42.144;25.884;2022-10-26T04:19:01;26.20;;;14.32;;
47523;SDS011;33253;42.144;25.884;2022-10-26T04:21:26;25.23;;;14.90;;
47523;SDS011;33253;42.144;25.884;2022-10-26T04:23:52;25.55;;;14.63;;
47523;SDS011;33253;42.144;25.884;2022-10-26T04:26:17;28.33;;;14.98;;
47523;SDS011;33253;42.144;25.884;2022-10-26T04:28:42;24.50;;;14.90;;
47523;SDS011;33253;42.144;25.884;2022-10-26T04:31:08;34.20;;;14.77;;
47523;SDS011;33253;42.144;25.884;2022-10-26T04:33:33;25.77;;;14.40;;
47523;SDS011;33253;42.144;25.884;2022-10-26T04:35:59;29.00;;;15.63;;
47523;SDS011;33253;42.144;25.884;2022-10-26T04:38:27;27.20;;;15.52;;
47523;SDS011;33253;42.144;25.884;2022-10-26T04:40:53;23.58;;;14.77;;
47523;SDS011;33253;42.144;25.884;2022-10-26T04:43:18;37.72;;;15.68;;
47523;SDS011;33253;42.144;25.884;2022-10-26T04:45:44;31.75;;;15.90;;
47523;SDS011;33253;42.144;25.884;2022-10-26T04:48:10;29.30;;;14.80;;
47523;SDS011;33253;42.144;25.884;2022-10-26T04:50:36;28.73;;;15.35;;
47523;SDS011;33253;42.144;25.884;2022-10-26T04:53:03;27.85;;;15.88;;
47523;SDS011;33253;42.144;25.884;2022-10-26T04:55:30;29.02;;;15.57;;
47523;SDS011;33253;42.144;25.884;2022-10-26T04:57:55;27.45;;;15.10;;
47523;SDS011;33253;42.144;25.884;2022-10-26T05:00:21;24.30;;;15.95;;
47523;SDS011;33253;42.144;25.884;2022-10-26T05:02:46;47.92;;;37.85;;
47523;SDS011;33253;42.144;25.884;2022-10-26T05:05:12;33.83;;;17.88;;
47523;SDS011;33253;42.144;25.884;2022-10-26T05:07:38;35.30;;;22.20;;
47523;SDS011;33253;42.144;25.884;2022-10-26T05:10:04;33.00;;;21.58;;
47523;SDS011;33253;42.144;25.884;2022-10-26T05:12:30;39.60;;;21.67;;
47523;SDS011;33253;42.144;25.884;2022-10-26T05:14:55;39.60;;;20.17;;
47523;SDS011;33253;42.144;25.884;2022-10-26T05:17:23;30.02;;;16.02;;
47523;SDS011;33253;42.144;25.884;2022-10-26T05:19:51;38.85;;;18.92;;
47523;SDS011;33253;42.144;25.884;2022-10-26T05:22:20;51.85;;;28.15;;
47523;SDS011;33253;42.144;25.884;2022-10-26T05:24:46;56.55;;;28.20;;
47523;SDS011;33253;42.144;25.884;2022-10-26T05:27:12;52.75;;;28.42;;
47523;SDS011;33253;42.144;25.884;2022-10-26T05:29:37;42.75;;;24.08;;
47523;SDS011;33253;42.144;25.884;2022-10-26T05:32:02;43.50;;;22.23;;
47523;SDS011;33253;42.144;25.884;2022-10-26T05:34:28;36.30;;;21.08;;
47523;SDS011;33253;42.144;25.884;2022-10-26T05:36:53;39.58;;;18.70;;
47523;SDS011;33253;42.144;25.884;2022-10-26T05:39:19;31.40;;;16.70;;
47523;SDS011;33253;42.144;25.884;2022-10-26T05:41:45;28.27;;;16.05;;
47523;SDS011;33253;42.144;25.884;2022-10-26T05:44:13;28.85;;;15.00;;
47523;SDS011;33253;42.144;25.884;2022-10-26T05:46:42;26.02;;;14.90;;
47523;SDS011;33253;42.144;25.884;2022-10-26T05:49:13;23.75;;;13.25;;
47523;SDS011;33253;42.144;25.884;2022-10-26T05:51:39;23.92;;;14.52;;
47523;SDS011;33253;42.144;25.884;2022-10-26T05:54:05;20.73;;;13.70;;
47523;SDS011;33253;42.144;25.884;2022-10-26T05:56:34;21.60;;;13.60;;
47523;SDS011;33253;42.144;25.884;2022-10-26T05:59:09;29.90;;;13.80;;
47523;SDS011;33253;42.144;25.884;2022-10-26T06:04:34;26.33;;;13.43;;
47523;SDS011;33253;42.144;25.884;2022-10-26T06:07:11;26.02;;;14.52;;
47523;SDS011;33253;42.144;25.884;2022-10-26T06:09:38;24.33;;;14.23;;
47523;SDS011;33253;42.144;25.884;2022-10-26T06:12:05;28.05;;;14.73;;
47523;SDS011;33253;42.144;25.884;2022-10-26T06:14:32;24.67;;;14.13;;
47523;SDS011;33253;42.144;25.884;2022-10-26T06:17:05;29.40;;;15.30;;
47523;SDS011;33253;42.144;25.884;2022-10-26T06:19:58;34.60;;;19.33;;
47523;SDS011;33253;42.144;25.884;2022-10-26T06:25:32;29.38;;;15.27;;
47523;SDS011;33253;42.144;25.884;2022-10-26T06:28:23;26.40;;;15.48;;
47523;SDS011;33253;42.144;25.884;2022-10-26T06:31:00;35.03;;;14.27;;
47523;SDS011;33253;42.144;25.884;2022-10-26T06:33:25;23.92;;;14.07;;
47523;SDS011;33253;42.144;25.884;2022-10-26T06:38:26;26.17;;;12.93;;
47523;SDS011;33253;42.144;25.884;2022-10-26T06:40:54;25.38;;;13.30;;
47523;SDS011;33253;42.144;25.884;2022-10-26T06:43:25;28.27;;;13.23;;
47523;SDS011;33253;42.144;25.884;2022-10-26T06:45:55;28.98;;;12.60;;
47523;SDS011;33253;42.144;25.884;2022-10-26T06:48:52;26.80;;;11.68;;
47523;SDS011;33253;42.144;25.884;2022-10-26T06:51:50;25.20;;;11.68;;
47523;SDS011;33253;42.144;25.884;2022-10-26T06:57:15;27.15;;;11.70;;
47523;SDS011;33253;42.144;25.884;2022-10-26T07:02:16;100.43;;;17.13;;
47523;SDS011;33253;42.144;25.884;2022-10-26T07:04:42;27.98;;;11.80;;
47523;SDS011;33253;42.144;25.884;2022-10-26T07:07:15;24.45;;;11.85;;
47523;SDS011;33253;42.144;25.884;2022-10-26T07:09:43;30.58;;;12.65;;
47523;SDS011;33253;42.144;25.884;2022-10-26T07:12:09;32.15;;;11.60;;
47523;SDS011;33253;42.144;25.884;2022-10-26T07:14:34;27.00;;;12.38;;
47523;SDS011;33253;42.144;25.884;2022-10-26T07:17:00;27.02;;;10.88;;
47523;SDS011;33253;42.144;25.884;2022-10-26T07:19:26;24.38;;;11.13;;
47523;SDS011;33253;42.144;25.884;2022-10-26T07:21:54;24.35;;;11.20;;
47523;SDS011;33253;42.144;25.884;2022-10-26T07:24:21;31.20;;;11.85;;
47523;SDS011;33253;42.144;25.884;2022-10-26T07:26:47;20.48;;;10.23;;
47523;SDS011;33253;42.144;25.884;2022-10-26T07:29:13;26.23;;;10.68;;
47523;SDS011;33253;42.144;25.884;2022-10-26T07:31:40;26.23;;;10.73;;
47523;SDS011;33253;42.144;25.884;2022-10-26T07:34:05;23.80;;;10.75;;
47523;SDS011;33253;42.144;25.884;2022-10-26T07:36:31;25.80;;;11.40;;
47523;SDS011;33253;42.144;25.884;2022-10-26T07:38:56;21.88;;;10.07;;
47523;SDS011;33253;42.144;25.884;2022-10-26T07:41:22;25.42;;;11.02;;
47523;SDS011;33253;42.144;25.884;2022-10-26T07:43:47;25.17;;;10.23;;
47523;SDS011;33253;42.144;25.884;2022-10-26T07:46:14;25.83;;;10.85;;
47523;SDS011;33253;42.144;25.884;2022-10-26T07:48:41;26.73;;;10.23;;
47523;SDS011;33253;42.144;25.884;2022-10-26T07:51:06;23.33;;;10.18;;
47523;SDS011;33253;42.144;25.884;2022-10-26T07:53:32;23.98;;;10.38;;
47523;SDS011;33253;42.144;25.884;2022-10-26T07:55:58;17.23;;;9.27;;
47523;SDS011;33253;42.144;25.884;2022-10-26T07:58:23;23.42;;;9.05;;
47523;SDS011;33253;42.144;25.884;2022-10-26T08:00:50;19.08;;;8.63;;
47523;SDS011;33253;42.144;25.884;2022-10-26T08:03:17;18.23;;;8.25;;
47523;SDS011;33253;42.144;25.884;2022-10-26T08:05:46;20.63;;;7.95;;
47523;SDS011;33253;42.144;25.884;2022-10-26T08:08:15;18.67;;;8.32;;
47523;SDS011;33253;42.144;25.884;2022-10-26T08:10:42;18.52;;;7.68;;
47523;SDS011;33253;42.144;25.884;2022-10-26T08:13:08;16.13;;;7.82;;
47523;SDS011;33253;42.144;25.884;2022-10-26T08:15:34;15.48;;;6.97;;
47523;SDS011;33253;42.144;25.884;2022-10-26T08:18:00;15.57;;;7.25;;
47523;SDS011;33253;42.144;25.884;2022-10-26T08:20:25;12.68;;;6.50;;
47523;SDS011;33253;42.144;25.884;2022-10-26T08:22:51;14.15;;;6.10;;
47523;SDS011;33253;42.144;25.884;2022-10-26T08:25:17;23.45;;;6.63;;
47523;SDS011;33253;42.144;25.884;2022-10-26T08:27:43;14.95;;;6.45;;
47523;SDS011;33253;42.144;25.884;2022-10-26T08:30:08;15.05;;;6.35;;
47523;SDS011;33253;42.144;25.884;2022-10-26T08:32:34;17.00;;;6.00;;
47523;SDS011;33253;42.144;25.884;2022-10-26T08:34:59;12.20;;;6.35;;
47523;SDS011;33253;42.144;25.884;2022-10-26T08:37:25;13.30;;;5.72;;
47523;SDS011;33253;42.144;25.884;2022-10-26T08:39:51;14.13;;;5.78;;
47523;SDS011;33253;42.144;25.884;2022-10-26T08:42:18;13.20;;;6.00;;
47523;SDS011;33253;42.144;25.884;2022-10-26T08:44:50;10.45;;;4.78;;
47523;SDS011;33253;42.144;25.884;2022-10-26T08:47:24;13.52;;;5.90;;
47523;SDS011;33253;42.144;25.884;2022-10-26T08:49:59;12.70;;;5.60;;
47523;SDS011;33253;42.144;25.884;2022-10-26T08:52:47;9.63;;;5.03;;
47523;SDS011;33253;42.144;25.884;2022-10-26T08:55:18;8.13;;;4.60;;
47523;SDS011;33253;42.144;25.884;2022-10-26T08:57:48;10.13;;;4.88;;
47523;SDS011;33253;42.144;25.884;2022-10-26T09:00:14;13.38;;;4.93;;
47523;SDS011;33253;42.144;25.884;2022-10-26T09:02:44;13.52;;;5.10;;
47523;SDS011;33253;42.144;25.884;2022-10-26T09:05:14;12.45;;;4.65;;
47523;SDS011;33253;42.144;25.884;2022-10-26T09:13:24;11.45;;;4.72;;
47523;SDS011;33253;42.144;25.884;2022-10-26T09:16:06;10.10;;;4.38;;
47523;SDS011;33253;42.144;25.884;2022-10-26T09:21:33;8.85;;;4.10;;
47523;SDS011;33253;42.144;25.884;2022-10-26T09:29:19;18.83;;;4.20;;
47523;SDS011;33253;42.144;25.884;2022-10-26T09:31:52;9.00;;;4.28;;
47523;SDS011;33253;42.144;25.884;2022-10-26T09:34:28;9.52;;;4.32;;
47523;SDS011;33253;42.144;25.884;2022-10-26T09:37:01;10.85;;;4.15;;
47523;SDS011;33253;42.144;25.884;2022-10-26T09:39:41;12.90;;;4.55;;
47523;SDS011;33253;42.144;25.884;2022-10-26T09:42:15;9.77;;;4.93;;
47523;SDS011;33253;42.144;25.884;2022-10-26T09:45:19;8.07;;;4.07;;
47523;SDS011;33253;42.144;25.884;2022-10-26T09:47:50;11.90;;;4.30;;
47523;SDS011;33253;42.144;25.884;2022-10-26T09:52:55;11.32;;;4.50;;
47523;SDS011;33253;42.144;25.884;2022-10-26T09:55:20;14.52;;;4.28;;
47523;SDS011;33253;42.144;25.884;2022-10-26T09:57:49;13.55;;;4.18;;
47523;SDS011;33253;42.144;25.884;2022-10-26T10:00:18;11.85;;;4.20;;
47523;SDS011;33253;42.144;25.884;2022-10-26T10:02:49;9.30;;;3.38;;
47523;SDS011;33253;42.144;25.884;2022-10-26T10:07:48;12.00;;;4.07;;
47523;SDS011;33253;42.144;25.884;2022-10-26T10:10:15;9.38;;;2.65;;
47523;SDS011;33253;42.144;25.884;2022-10-26T10:12:42;7.03;;;2.42;;
47523;SDS011;33253;42.144;25.884;2022-10-26T10:15:20;8.07;;;2.42;;
47523;SDS011;33253;42.144;25.884;2022-10-26T10:17:50;8.85;;;2.67;;
47523;SDS011;33253;42.144;25.884;2022-10-26T10:20:21;7.82;;;2.45;;
47523;SDS011;33253;42.144;25.884;2022-10-26T10:22:58;10.48;;;2.30;;
47523;SDS011;33253;42.144;25.884;2022-10-26T10:25:32;6.20;;;2.70;;
47523;SDS011;33253;42.144;25.884;2022-10-26T10:28:00;8.27;;;2.50;;
47523;SDS011;33253;42.144;25.884;2022-10-26T10:30:27;6.60;;;2.53;;
47523;SDS011;33253;42.144;25.884;2022-10-26T10:33:05;7.65;;;2.33;;
47523;SDS011;33253;42.144;25.884;2022-10-26T10:35:34;8.93;;;2.70;;
47523;SDS011;33253;42.144;25.884;2022-10-26T10:38:00;9.32;;;2.42;;
47523;SDS011;33253;42.144;25.884;2022-10-26T10:40:26;3.92;;;2.20;;
47523;SDS011;33253;42.144;25.884;2022-10-26T10:43:05;4.72;;;2.22;;
47523;SDS011;33253;42.144;25.884;2022-10-26T10:45:37;4.78;;;2.00;;
47523;SDS011;33253;42.144;25.884;2022-10-26T10:48:12;7.75;;;2.20;;
47523;SDS011;33253;42.144;25.884;2022-10-26T10:58:29;10.13;;;2.13;;
47523;SDS011;33253;42.144;25.884;2022-10-26T11:01:05;5.32;;;2.13;;
47523;SDS011;33253;42.144;25.884;2022-10-26T11:03:41;6.97;;;2.20;;
47523;SDS011;33253;42.144;25.884;2022-10-26T11:06:29;3.90;;;1.90;;
47523;SDS011;33253;42.144;25.884;2022-10-26T11:11:38;7.65;;;2.15;;
47523;SDS011;33253;42.144;25.884;2022-10-26T11:14:24;6.95;;;2.13;;
47523;SDS011;33253;42.144;25.884;2022-10-26T11:19:39;7.43;;;2.10;;
47523;SDS011;33253;42.144;25.884;2022-10-26T11:22:10;4.72;;;1.92;;
47523;SDS011;33253;42.144;25.884;2022-10-26T11:24:48;6.45;;;2.33;;
47523;SDS011;33253;42.144;25.884;2022-10-26T11:27:19;4.03;;;2.17;;
47523;SDS011;33253;42.144;25.884;2022-10-26T11:30:02;6.78;;;2.35;;
47523;SDS011;33253;42.144;25.884;2022-10-26T11:32:36;3.28;;;2.20;;
47523;SDS011;33253;42.144;25.884;2022-10-26T11:35:17;4.68;;;2.20;;
47523;SDS011;33253;42.144;25.884;2022-10-26T11:43:11;4.35;;;2.30;;
47523;SDS011;33253;42.144;25.884;2022-10-26T11:45:58;4.07;;;2.05;;
47523;SDS011;33253;42.144;25.884;2022-10-26T11:48:30;6.22;;;2.08;;
47523;SDS011;33253;42.144;25.884;2022-10-26T11:51:01;4.93;;;2.00;;
47523;SDS011;33253;42.144;25.884;2022-10-26T11:53:38;4.43;;;2.20;;
47523;SDS011;33253;42.144;25.884;2022-10-26T11:59:18;5.15;;;2.40;;
47523;SDS011;33253;42.144;25.884;2022-10-26T12:02:10;3.83;;;1.98;;
47523;SDS011;33253;42.144;25.884;2022-10-26T12:04:38;6.93;;;2.67;;
47523;SDS011;33253;42.144;25.884;2022-10-26T12:07:08;9.13;;;2.30;;
47523;SDS011;33253;42.144;25.884;2022-10-26T12:09:41;4.45;;;2.42;;
47523;SDS011;33253;42.144;25.884;2022-10-26T12:20:20;4.20;;;2.08;;
47523;SDS011;33253;42.144;25.884;2022-10-26T12:22:58;8.07;;;2.53;;
47523;SDS011;33253;42.144;25.884;2022-10-26T12:25:23;5.60;;;1.90;;
47523;SDS011;33253;42.144;25.884;2022-10-26T12:27:50;7.45;;;2.15;;
47523;SDS011;33253;42.144;25.884;2022-10-26T12:40:47;6.00;;;2.83;;
47523;SDS011;33253;42.144;25.884;2022-10-26T12:43:35;4.45;;;2.00;;
47523;SDS011;33253;42.144;25.884;2022-10-26T12:48:48;5.60;;;2.35;;
47523;SDS011;33253;42.144;25.884;2022-10-26T12:56:26;4.38;;;2.63;;
47523;SDS011;33253;42.144;25.884;2022-10-26T12:59:20;4.25;;;2.13;;
47523;SDS011;33253;42.144;25.884;2022-10-26T13:07:42;8.38;;;2.60;;
47523;SDS011;33253;42.144;25.884;2022-10-26T13:20:27;8.20;;;2.20;;
47523;SDS011;33253;42.144;25.884;2022-10-26T13:22:54;7.60;;;2.63;;
47523;SDS011;33253;42.144;25.884;2022-10-26T13:25:29;6.55;;;2.47;;
47523;SDS011;33253;42.144;25.884;2022-10-26T13:30:51;5.28;;;2.40;;
47523;SDS011;33253;42.144;25.884;2022-10-26T13:33:18;4.80;;;2.60;;
47523;SDS011;33253;42.144;25.884;2022-10-26T13:35:46;7.50;;;2.30;;
47523;SDS011;33253;42.144;25.884;2022-10-26T13:38:14;6.05;;;2.65;;
47523;SDS011;33253;42.144;25.884;2022-10-26T13:40:44;5.72;;;2.60;;
47523;SDS011;33253;42.144;25.884;2022-10-26T13:43:13;10.88;;;2.80;;
47523;SDS011;33253;42.144;25.884;2022-10-26T13:45:58;4.18;;;2.42;;
47523;SDS011;33253;42.144;25.884;2022-10-26T13:51:03;5.38;;;2.60;;
47523;SDS011;33253;42.144;25.884;2022-10-26T13:53:39;8.35;;;3.33;;
47523;SDS011;33253;42.144;25.884;2022-10-26T13:56:23;8.98;;;2.53;;
47523;SDS011;33253;42.144;25.884;2022-10-26T13:58:59;6.25;;;2.28;;
47523;SDS011;33253;42.144;25.884;2022-10-26T14:01:29;7.40;;;2.95;;
47523;SDS011;33253;42.144;25.884;2022-10-26T14:03:55;7.38;;;3.10;;
47523;SDS011;33253;42.144;25.884;2022-10-26T14:06:23;9.52;;;2.83;;
47523;SDS011;33253;42.144;25.884;2022-10-26T14:08:55;6.13;;;2.70;;
47523;SDS011;33253;42.144;25.884;2022-10-26T14:11:36;5.53;;;2.88;;
47523;SDS011;33253;42.144;25.884;2022-10-26T14:14:13;4.63;;;2.70;;
47523;SDS011;33253;42.144;25.884;2022-10-26T14:16:45;15.52;;;3.30;;
47523;SDS011;33253;42.144;25.884;2022-10-26T14:19:19;5.90;;;2.80;;
47523;SDS011;33253;42.144;25.884;2022-10-26T14:21:49;4.95;;;2.38;;
47523;SDS011;33253;42.144;25.884;2022-10-26T14:24:25;7.22;;;2.63;;
47523;SDS011;33253;42.144;25.884;2022-10-26T14:26:52;5.82;;;2.85;;
47523;SDS011;33253;42.144;25.884;2022-10-26T14:29:22;8.15;;;2.85;;
47523;SDS011;33253;42.144;25.884;2022-10-26T14:31:50;6.88;;;2.60;;
47523;SDS011;33253;42.144;25.884;2022-10-26T14:34:16;5.53;;;2.70;;
47523;SDS011;33253;42.144;25.884;2022-10-26T14:36:45;6.43;;;2.92;;
47523;SDS011;33253;42.144;25.884;2022-10-26T14:39:29;4.35;;;2.35;;
47523;SDS011;33253;42.144;25.884;2022-10-26T14:42:00;5.90;;;2.28;;
47523;SDS011;33253;42.144;25.884;2022-10-26T14:44:34;4.95;;;2.42;;
47523;SDS011;33253;42.144;25.884;2022-10-26T14:47:01;5.85;;;2.30;;
47523;SDS011;33253;42.144;25.884;2022-10-26T14:49:27;6.95;;;2.90;;
47523;SDS011;33253;42.144;25.884;2022-10-26T14:51:56;7.30;;;2.60;;
47523;SDS011;33253;42.144;25.884;2022-10-26T14:54:24;11.75;;;2.67;;
47523;SDS011;33253;42.144;25.884;2022-10-26T14:56:51;4.88;;;2.85;;
47523;SDS011;33253;42.144;25.884;2022-10-26T14:59:25;5.72;;;2.70;;
47523;SDS011;33253;42.144;25.884;2022-10-26T15:04:58;6.47;;;2.60;;
47523;SDS011;33253;42.144;25.884;2022-10-26T15:07:33;7.32;;;2.63;;
47523;SDS011;33253;42.144;25.884;2022-10-26T15:10:00;10.18;;;2.90;;
47523;SDS011;33253;42.144;25.884;2022-10-26T15:12:27;15.15;;;3.60;;
47523;SDS011;33253;42.144;25.884;2022-10-26T15:15:15;10.13;;;3.15;;
47523;SDS011;33253;42.144;25.884;2022-10-26T15:17:53;11.90;;;3.22;;
47523;SDS011;33253;42.144;25.884;2022-10-26T15:20:21;12.02;;;5.07;;
47523;SDS011;33253;42.144;25.884;2022-10-26T15:22:58;12.90;;;5.35;;
47523;SDS011;33253;42.144;25.884;2022-10-26T15:25:26;20.85;;;5.40;;
47523;SDS011;33253;42.144;25.884;2022-10-26T15:27:53;13.07;;;3.65;;
47523;SDS011;33253;42.144;25.884;2022-10-26T15:30:32;7.43;;;2.70;;
47523;SDS011;33253;42.144;25.884;2022-10-26T15:32:57;7.85;;;2.97;;
47523;SDS011;33253;42.144;25.884;2022-10-26T15:35:45;6.43;;;2.78;;
47523;SDS011;33253;42.144;25.884;2022-10-26T15:38:10;4.22;;;2.60;;
47523;SDS011;33253;42.144;25.884;2022-10-26T15:40:37;14.00;;;3.40;;
47523;SDS011;33253;42.144;25.884;2022-10-26T15:43:07;7.05;;;2.90;;
47523;SDS011;33253;42.144;25.884;2022-10-26T15:45:43;5.80;;;2.92;;
47523;SDS011;33253;42.144;25.884;2022-10-26T15:48:17;4.70;;;2.42;;
47523;SDS011;33253;42.144;25.884;2022-10-26T15:50:46;6.18;;;2.50;;
47523;SDS011;33253;42.144;25.884;2022-10-26T15:53:17;14.13;;;2.40;;
47523;SDS011;33253;42.144;25.884;2022-10-26T15:55:44;6.82;;;2.33;;
47523;SDS011;33253;42.144;25.884;2022-10-26T15:58:10;9.88;;;3.35;;
47523;SDS011;33253;42.144;25.884;2022-10-26T16:00:36;5.80;;;2.83;;
47523;SDS011;33253;42.144;25.884;2022-10-26T16:03:03;9.18;;;3.20;;
47523;SDS011;33253;42.144;25.884;2022-10-26T16:05:29;13.25;;;3.85;;
47523;SDS011;33253;42.144;25.884;2022-10-26T16:07:55;12.68;;;4.43;;
47523;SDS011;33253;42.144;25.884;2022-10-26T16:10:21;11.13;;;4.07;;
47523;SDS011;33253;42.144;25.884;2022-10-26T16:12:51;12.75;;;3.95;;
47523;SDS011;33253;42.144;25.884;2022-10-26T16:15:17;11.73;;;3.58;;
47523;SDS011;33253;42.144;25.884;2022-10-26T16:17:48;12.57;;;3.85;;
47523;SDS011;33253;42.144;25.884;2022-10-26T16:20:16;11.18;;;3.92;;
47523;SDS011;33253;42.144;25.884;2022-10-26T16:22:46;13.40;;;3.78;;
47523;SDS011;33253;42.144;25.884;2022-10-26T16:25:13;14.75;;;3.85;;
47523;SDS011;33253;42.144;25.884;2022-10-26T16:27:40;13.13;;;4.07;;
47523;SDS011;33253;42.144;25.884;2022-10-26T16:30:06;11.15;;;4.18;;
47523;SDS011;33253;42.144;25.884;2022-10-26T16:32:32;9.23;;;4.22;;
47523;SDS011;33253;42.144;25.884;2022-10-26T16:34:58;9.00;;;4.35;;
47523;SDS011;33253;42.144;25.884;2022-10-26T16:37:23;10.88;;;4.65;;
47523;SDS011;33253;42.144;25.884;2022-10-26T16:39:49;9.52;;;4.20;;
47523;SDS011;33253;42.144;25.884;2022-10-26T16:42:14;11.93;;;4.03;;
47523;SDS011;33253;42.144;25.884;2022-10-26T16:44:40;7.43;;;3.58;;
47523;SDS011;33253;42.144;25.884;2022-10-26T16:47:05;9.45;;;3.33;;
47523;SDS011;33253;42.144;25.884;2022-10-26T16:49:30;7.03;;;3.45;;
47523;SDS011;33253;42.144;25.884;2022-10-26T16:51:56;13.75;;;3.50;;
47523;SDS011;33253;42.144;25.884;2022-10-26T16:54:21;6.57;;;3.35;;
47523;SDS011;33253;42.144;25.884;2022-10-26T16:56:47;10.63;;;4.88;;
47523;SDS011;33253;42.144;25.884;2022-10-26T16:59:13;10.65;;;5.30;;